Ethel, LA (70730)

11:36 AM CDT en Abril 22, 2018 (GMT -0500)
None | | Change Station

Alt 177 ft 30.76 °N, 91.08 °W | Updated 13 seconds ago

Lluvia
Lluvia
72.9 ° F
Sensación térmica 71 ° F
N
5.6
Viento Variable Viento desde NO
Gusts 7.4 mph

Hoy
Alta -- | Baja -- ° F
--% Posibilidad de precipitaciones
Ayer
Alta -- | Baja -- ° F
Precip. -- pul
Presión 29.86 pul
Visibilidad 7.0 Millas
Nubes Muy nublado 1400 ft
Muy nublado 2000 ft
Nublado 2900 ft
Índice de calor 71 ° F
Punto de rocío 69 ° F
Humedad 88%
Precipitaciones 0.64 pul
Espesor de la nieve No disponible.
6:29 AM 7:37 PM
Creciente, 48% visible
METAR KBTR 221453Z 16014G19KT 7SM BKN014 BKN020 OVC029 23/20 A2986 RMK AO2 RAE06 SLP110 P0000 60000 T02330200 58010
Presión 29.86 pul
Visibilidad 7.0 Millas
Nubes Muy nublado 1400 ft
Muy nublado 2000 ft
Nublado 2900 ft
Índice de calor 71 ° F
Punto de rocío 69 ° F
Humedad 88%
Precipitaciones 0.64 pul
Espesor de la nieve No disponible.
6:29 AM 7:37 PM
Creciente, 48% visible
METAR KBTR 221453Z 16014G19KT 7SM BKN014 BKN020 OVC029 23/20 A2986 RMK AO2 RAE06 SLP110 P0000 60000 T02330200 58010

Get Severe Weather Alerts

Thanks for signing up!

Be on the lookout for a verification email in your inbox.

You'll start receiving the daily forecast at 6 AM.

×

10-Day Weather Forecast

Almanac

Astronomía

Apr. 22, 2018 Salida Puesta
Hora real
Crepúsculo civil
Crepúsculo náutico
Crepúsculo astronómico
Luna
Horas de luz
Horas de luz
Tomorrow will be .
, % of the Moon is Illuminated

Extremos de hoy

Máximos del estado Bajos del estado

Community

WunderPhotos

Category 6

Welcome to Category 6. This is the collective home for Weather Underground's featured writeups by Dr. Jeff Masters (right), Bob Henson (left), Chris Burt, and other regular contributors.

Nearby

Calidad del aire

  Calidad del aire Índice AQ Contaminante
Not available.

Grosos de nieve

Estación Profundido Altura

Actividad de terremotos

Ciudad Distance Mag. Tiempo y dato
Magnitud mínima muestra es 2,5.

Temperaturas de aguas costeras

Lugar Temperatura

Stations

Estaciones meteorológicas cercanas

Ubicación de la estación Temp. Vientos helados Punto de rocío Humedad Viento Precip. Alt Actualizado Tipo
                   

Watches & Warnings

There are currently no watches in effect.